sensor_id;sensor_type;location;lat;lon;timestamp;P1;durP1;ratioP1;P2;durP2;ratioP2
32094;SDS011;18608;53.688;10.748;2022-08-20T00:00:05;44.03;;;28.20;;
32094;SDS011;18608;53.688;10.748;2022-08-20T00:02:47;44.30;;;28.90;;
32094;SDS011;18608;53.688;10.748;2022-08-20T00:05:19;40.77;;;26.87;;
32094;SDS011;18608;53.688;10.748;2022-08-20T00:07:47;45.23;;;28.23;;
32094;SDS011;18608;53.688;10.748;2022-08-20T00:10:13;44.03;;;26.90;;
32094;SDS011;18608;53.688;10.748;2022-08-20T00:12:46;41.40;;;27.00;;
32094;SDS011;18608;53.688;10.748;2022-08-20T00:15:14;44.27;;;28.77;;
32094;SDS011;18608;53.688;10.748;2022-08-20T00:17:41;41.30;;;25.27;;
32094;SDS011;18608;53.688;10.748;2022-08-20T00:20:08;44.03;;;28.07;;
32094;SDS011;18608;53.688;10.748;2022-08-20T00:22:36;42.77;;;27.17;;
32094;SDS011;18608;53.688;10.748;2022-08-20T00:25:09;40.00;;;27.93;;
32094;SDS011;18608;53.688;10.748;2022-08-20T00:27:35;40.00;;;27.23;;
32094;SDS011;18608;53.688;10.748;2022-08-20T00:30:03;46.70;;;30.30;;
32094;SDS011;18608;53.688;10.748;2022-08-20T00:32:30;53.53;;;32.10;;
32094;SDS011;18608;53.688;10.748;2022-08-20T00:34:56;56.47;;;31.27;;
32094;SDS011;18608;53.688;10.748;2022-08-20T00:37:22;53.10;;;31.73;;
32094;SDS011;18608;53.688;10.748;2022-08-20T00:39:48;51.37;;;30.70;;
32094;SDS011;18608;53.688;10.748;2022-08-20T00:42:14;50.03;;;31.67;;
32094;SDS011;18608;53.688;10.748;2022-08-20T00:44:43;56.33;;;32.50;;
32094;SDS011;18608;53.688;10.748;2022-08-20T00:47:10;56.13;;;33.07;;
32094;SDS011;18608;53.688;10.748;2022-08-20T00:49:35;54.63;;;34.10;;
32094;SDS011;18608;53.688;10.748;2022-08-20T00:54:44;52.30;;;30.53;;
32094;SDS011;18608;53.688;10.748;2022-08-20T00:59:39;52.53;;;32.57;;
32094;SDS011;18608;53.688;10.748;2022-08-20T01:02:07;49.93;;;30.80;;
32094;SDS011;18608;53.688;10.748;2022-08-20T01:04:36;54.33;;;29.07;;
32094;SDS011;18608;53.688;10.748;2022-08-20T01:07:03;46.63;;;29.33;;
32094;SDS011;18608;53.688;10.748;2022-08-20T01:09:31;39.67;;;26.50;;
32094;SDS011;18608;53.688;10.748;2022-08-20T01:11:58;40.03;;;23.37;;
32094;SDS011;18608;53.688;10.748;2022-08-20T01:14:24;40.57;;;24.40;;
32094;SDS011;18608;53.688;10.748;2022-08-20T01:16:55;38.17;;;22.97;;
32094;SDS011;18608;53.688;10.748;2022-08-20T01:19:26;32.53;;;20.47;;
32094;SDS011;18608;53.688;10.748;2022-08-20T01:21:54;36.93;;;21.07;;
32094;SDS011;18608;53.688;10.748;2022-08-20T01:24:29;32.53;;;19.93;;
32094;SDS011;18608;53.688;10.748;2022-08-20T01:27:00;31.83;;;17.80;;
32094;SDS011;18608;53.688;10.748;2022-08-20T01:29:30;23.20;;;16.90;;
32094;SDS011;18608;53.688;10.748;2022-08-20T01:32:00;30.40;;;17.10;;
32094;SDS011;18608;53.688;10.748;2022-08-20T01:34:26;25.53;;;17.80;;
32094;SDS011;18608;53.688;10.748;2022-08-20T01:36:54;26.30;;;15.93;;
32094;SDS011;18608;53.688;10.748;2022-08-20T01:39:29;25.03;;;15.00;;
32094;SDS011;18608;53.688;10.748;2022-08-20T01:44:38;20.13;;;14.20;;
32094;SDS011;18608;53.688;10.748;2022-08-20T01:47:08;19.50;;;14.73;;
32094;SDS011;18608;53.688;10.748;2022-08-20T01:49:38;21.60;;;15.43;;
32094;SDS011;18608;53.688;10.748;2022-08-20T01:52:08;18.80;;;13.83;;
32094;SDS011;18608;53.688;10.748;2022-08-20T01:54:36;24.13;;;15.83;;
32094;SDS011;18608;53.688;10.748;2022-08-20T01:57:10;25.23;;;15.73;;
32094;SDS011;18608;53.688;10.748;2022-08-20T01:59:38;23.67;;;15.40;;
32094;SDS011;18608;53.688;10.748;2022-08-20T02:02:05;24.90;;;16.37;;
32094;SDS011;18608;53.688;10.748;2022-08-20T02:04:31;24.40;;;16.10;;
32094;SDS011;18608;53.688;10.748;2022-08-20T02:06:58;24.87;;;15.37;;
32094;SDS011;18608;53.688;10.748;2022-08-20T02:09:26;26.23;;;17.13;;
32094;SDS011;18608;53.688;10.748;2022-08-20T02:11:54;22.40;;;16.40;;
32094;SDS011;18608;53.688;10.748;2022-08-20T02:14:21;18.70;;;13.63;;
32094;SDS011;18608;53.688;10.748;2022-08-20T02:16:47;22.03;;;14.37;;
32094;SDS011;18608;53.688;10.748;2022-08-20T02:19:22;22.30;;;16.20;;
32094;SDS011;18608;53.688;10.748;2022-08-20T02:21:54;22.83;;;16.07;;
32094;SDS011;18608;53.688;10.748;2022-08-20T02:24:22;22.83;;;15.00;;
32094;SDS011;18608;53.688;10.748;2022-08-20T02:26:49;19.70;;;15.30;;
32094;SDS011;18608;53.688;10.748;2022-08-20T02:29:16;27.13;;;15.53;;
32094;SDS011;18608;53.688;10.748;2022-08-20T02:31:42;21.17;;;15.07;;
32094;SDS011;18608;53.688;10.748;2022-08-20T02:34:10;20.67;;;14.80;;
32094;SDS011;18608;53.688;10.748;2022-08-20T02:36:37;22.03;;;14.23;;
32094;SDS011;18608;53.688;10.748;2022-08-20T02:39:07;21.20;;;14.80;;
32094;SDS011;18608;53.688;10.748;2022-08-20T02:41:35;17.90;;;13.23;;
32094;SDS011;18608;53.688;10.748;2022-08-20T02:44:02;25.03;;;14.17;;
32094;SDS011;18608;53.688;10.748;2022-08-20T02:46:29;18.00;;;13.00;;
32094;SDS011;18608;53.688;10.748;2022-08-20T02:48:55;17.50;;;13.23;;
32094;SDS011;18608;53.688;10.748;2022-08-20T02:51:21;22.57;;;11.97;;
32094;SDS011;18608;53.688;10.748;2022-08-20T02:53:47;21.20;;;13.30;;
32094;SDS011;18608;53.688;10.748;2022-08-20T02:56:13;16.30;;;13.43;;
32094;SDS011;18608;53.688;10.748;2022-08-20T02:58:39;17.20;;;13.57;;
32094;SDS011;18608;53.688;10.748;2022-08-20T03:01:12;20.57;;;13.70;;
32094;SDS011;18608;53.688;10.748;2022-08-20T03:03:41;18.63;;;13.70;;
32094;SDS011;18608;53.688;10.748;2022-08-20T03:06:07;20.37;;;14.23;;
32094;SDS011;18608;53.688;10.748;2022-08-20T03:08:34;20.03;;;14.13;;
32094;SDS011;18608;53.688;10.748;2022-08-20T03:11:00;19.70;;;13.20;;
32094;SDS011;18608;53.688;10.748;2022-08-20T03:13:27;20.80;;;14.47;;
32094;SDS011;18608;53.688;10.748;2022-08-20T03:15:54;16.93;;;12.83;;
32094;SDS011;18608;53.688;10.748;2022-08-20T03:18:23;17.20;;;14.30;;
32094;SDS011;18608;53.688;10.748;2022-08-20T03:20:51;22.27;;;12.50;;
32094;SDS011;18608;53.688;10.748;2022-08-20T03:23:17;19.33;;;13.07;;
32094;SDS011;18608;53.688;10.748;2022-08-20T03:25:44;14.17;;;11.33;;
32094;SDS011;18608;53.688;10.748;2022-08-20T03:28:10;16.03;;;11.70;;
32094;SDS011;18608;53.688;10.748;2022-08-20T03:30:36;16.37;;;12.13;;
32094;SDS011;18608;53.688;10.748;2022-08-20T03:33:03;13.70;;;10.83;;
32094;SDS011;18608;53.688;10.748;2022-08-20T03:35:29;16.37;;;12.00;;
32094;SDS011;18608;53.688;10.748;2022-08-20T03:37:55;18.90;;;11.70;;
32094;SDS011;18608;53.688;10.748;2022-08-20T03:40:25;18.40;;;12.20;;
32094;SDS011;18608;53.688;10.748;2022-08-20T03:42:53;21.77;;;13.40;;
32094;SDS011;18608;53.688;10.748;2022-08-20T03:45:20;23.70;;;13.60;;
32094;SDS011;18608;53.688;10.748;2022-08-20T03:47:47;23.10;;;14.03;;
32094;SDS011;18608;53.688;10.748;2022-08-20T03:50:17;16.87;;;12.50;;
32094;SDS011;18608;53.688;10.748;2022-08-20T03:52:44;21.20;;;13.93;;
32094;SDS011;18608;53.688;10.748;2022-08-20T03:55:10;21.17;;;14.63;;
32094;SDS011;18608;53.688;10.748;2022-08-20T03:57:42;25.23;;;13.03;;
32094;SDS011;18608;53.688;10.748;2022-08-20T04:00:14;22.70;;;14.50;;
32094;SDS011;18608;53.688;10.748;2022-08-20T04:02:44;24.00;;;15.50;;
32094;SDS011;18608;53.688;10.748;2022-08-20T04:05:10;24.63;;;14.20;;
32094;SDS011;18608;53.688;10.748;2022-08-20T04:07:37;19.20;;;13.43;;
32094;SDS011;18608;53.688;10.748;2022-08-20T04:10:05;19.83;;;14.53;;
32094;SDS011;18608;53.688;10.748;2022-08-20T04:12:34;22.87;;;13.37;;
32094;SDS011;18608;53.688;10.748;2022-08-20T04:15:14;23.47;;;14.50;;
32094;SDS011;18608;53.688;10.748;2022-08-20T04:17:42;22.13;;;14.37;;
32094;SDS011;18608;53.688;10.748;2022-08-20T04:20:10;19.50;;;14.50;;
32094;SDS011;18608;53.688;10.748;2022-08-20T04:22:37;21.30;;;14.00;;
32094;SDS011;18608;53.688;10.748;2022-08-20T04:25:04;19.40;;;13.63;;
32094;SDS011;18608;53.688;10.748;2022-08-20T04:27:32;21.37;;;15.13;;
32094;SDS011;18608;53.688;10.748;2022-08-20T04:30:01;19.90;;;14.77;;
32094;SDS011;18608;53.688;10.748;2022-08-20T04:32:28;23.33;;;13.93;;
32094;SDS011;18608;53.688;10.748;2022-08-20T04:34:54;22.70;;;11.80;;
32094;SDS011;18608;53.688;10.748;2022-08-20T04:37:20;24.40;;;14.57;;
32094;SDS011;18608;53.688;10.748;2022-08-20T04:39:47;32.87;;;15.67;;
32094;SDS011;18608;53.688;10.748;2022-08-20T04:42:37;23.00;;;13.13;;
32094;SDS011;18608;53.688;10.748;2022-08-20T04:45:05;20.13;;;13.30;;
32094;SDS011;18608;53.688;10.748;2022-08-20T04:47:32;23.43;;;14.37;;
32094;SDS011;18608;53.688;10.748;2022-08-20T04:49:59;21.87;;;14.50;;
32094;SDS011;18608;53.688;10.748;2022-08-20T04:52:28;17.27;;;13.53;;
32094;SDS011;18608;53.688;10.748;2022-08-20T04:54:56;16.43;;;12.10;;
32094;SDS011;18608;53.688;10.748;2022-08-20T04:57:22;21.53;;;13.80;;
32094;SDS011;18608;53.688;10.748;2022-08-20T04:59:50;26.70;;;13.23;;
32094;SDS011;18608;53.688;10.748;2022-08-20T05:02:16;20.87;;;14.60;;
32094;SDS011;18608;53.688;10.748;2022-08-20T05:04:42;19.20;;;13.93;;
32094;SDS011;18608;53.688;10.748;2022-08-20T05:07:12;24.63;;;13.03;;
32094;SDS011;18608;53.688;10.748;2022-08-20T05:09:42;21.57;;;14.67;;
32094;SDS011;18608;53.688;10.748;2022-08-20T05:12:08;23.77;;;17.33;;
32094;SDS011;18608;53.688;10.748;2022-08-20T05:14:34;27.33;;;16.37;;
32094;SDS011;18608;53.688;10.748;2022-08-20T05:17:03;25.10;;;16.13;;
32094;SDS011;18608;53.688;10.748;2022-08-20T05:19:30;29.13;;;17.23;;
32094;SDS011;18608;53.688;10.748;2022-08-20T05:21:57;27.93;;;16.90;;
32094;SDS011;18608;53.688;10.748;2022-08-20T05:24:23;36.67;;;16.53;;
32094;SDS011;18608;53.688;10.748;2022-08-20T05:26:49;20.50;;;14.90;;
32094;SDS011;18608;53.688;10.748;2022-08-20T05:29:15;26.13;;;17.07;;
32094;SDS011;18608;53.688;10.748;2022-08-20T05:31:41;26.10;;;17.47;;
32094;SDS011;18608;53.688;10.748;2022-08-20T05:34:08;26.00;;;16.50;;
32094;SDS011;18608;53.688;10.748;2022-08-20T05:36:36;36.40;;;18.30;;
32094;SDS011;18608;53.688;10.748;2022-08-20T05:39:06;32.53;;;17.10;;
32094;SDS011;18608;53.688;10.748;2022-08-20T05:41:33;30.53;;;17.40;;
32094;SDS011;18608;53.688;10.748;2022-08-20T05:43:59;30.43;;;19.40;;
32094;SDS011;18608;53.688;10.748;2022-08-20T05:46:25;37.07;;;19.73;;
32094;SDS011;18608;53.688;10.748;2022-08-20T05:48:51;38.30;;;19.90;;
32094;SDS011;18608;53.688;10.748;2022-08-20T05:51:17;33.93;;;19.60;;
32094;SDS011;18608;53.688;10.748;2022-08-20T05:53:42;31.10;;;19.13;;
32094;SDS011;18608;53.688;10.748;2022-08-20T05:56:08;30.63;;;18.50;;
32094;SDS011;18608;53.688;10.748;2022-08-20T05:58:37;40.20;;;21.20;;
32094;SDS011;18608;53.688;10.748;2022-08-20T06:01:03;34.90;;;20.00;;
32094;SDS011;18608;53.688;10.748;2022-08-20T06:03:29;38.50;;;20.97;;
32094;SDS011;18608;53.688;10.748;2022-08-20T06:06:14;48.33;;;24.53;;
32094;SDS011;18608;53.688;10.748;2022-08-20T06:08:40;46.53;;;23.87;;
32094;SDS011;18608;53.688;10.748;2022-08-20T06:11:06;40.23;;;21.27;;
32094;SDS011;18608;53.688;10.748;2022-08-20T06:13:32;40.00;;;23.73;;
32094;SDS011;18608;53.688;10.748;2022-08-20T06:15:58;45.90;;;25.00;;
32094;SDS011;18608;53.688;10.748;2022-08-20T06:18:25;56.13;;;26.60;;
32094;SDS011;18608;53.688;10.748;2022-08-20T06:20:50;48.87;;;25.93;;
32094;SDS011;18608;53.688;10.748;2022-08-20T06:23:17;52.13;;;25.50;;
32094;SDS011;18608;53.688;10.748;2022-08-20T06:25:43;48.00;;;24.90;;
32094;SDS011;18608;53.688;10.748;2022-08-20T06:28:09;45.23;;;24.57;;
32094;SDS011;18608;53.688;10.748;2022-08-20T06:30:35;51.90;;;25.77;;
32094;SDS011;18608;53.688;10.748;2022-08-20T06:33:01;45.37;;;23.67;;
32094;SDS011;18608;53.688;10.748;2022-08-20T06:35:27;47.43;;;23.40;;
32094;SDS011;18608;53.688;10.748;2022-08-20T06:37:53;43.73;;;24.00;;
32094;SDS011;18608;53.688;10.748;2022-08-20T06:40:22;39.83;;;23.50;;
32094;SDS011;18608;53.688;10.748;2022-08-20T06:42:50;45.80;;;22.60;;
32094;SDS011;18608;53.688;10.748;2022-08-20T06:45:18;35.77;;;21.27;;
32094;SDS011;18608;53.688;10.748;2022-08-20T06:47:50;41.83;;;22.20;;
32094;SDS011;18608;53.688;10.748;2022-08-20T06:50:27;42.70;;;20.30;;
32094;SDS011;18608;53.688;10.748;2022-08-20T06:53:03;41.43;;;21.90;;
32094;SDS011;18608;53.688;10.748;2022-08-20T06:55:29;48.10;;;23.30;;
32094;SDS011;18608;53.688;10.748;2022-08-20T06:58:00;36.17;;;20.70;;
32094;SDS011;18608;53.688;10.748;2022-08-20T07:00:29;45.90;;;21.37;;
32094;SDS011;18608;53.688;10.748;2022-08-20T07:02:57;40.30;;;21.57;;
32094;SDS011;18608;53.688;10.748;2022-08-20T07:05:24;36.80;;;19.20;;
32094;SDS011;18608;53.688;10.748;2022-08-20T07:07:51;37.30;;;20.77;;
32094;SDS011;18608;53.688;10.748;2022-08-20T07:10:17;37.83;;;19.40;;
32094;SDS011;18608;53.688;10.748;2022-08-20T07:12:44;31.17;;;18.07;;
32094;SDS011;18608;53.688;10.748;2022-08-20T07:15:11;37.47;;;21.00;;
32094;SDS011;18608;53.688;10.748;2022-08-20T07:17:39;35.73;;;19.60;;
32094;SDS011;18608;53.688;10.748;2022-08-20T07:20:09;39.60;;;21.77;;
32094;SDS011;18608;53.688;10.748;2022-08-20T07:22:37;33.40;;;19.67;;
32094;SDS011;18608;53.688;10.748;2022-08-20T07:25:04;34.73;;;19.90;;
32094;SDS011;18608;53.688;10.748;2022-08-20T07:27:32;33.53;;;19.70;;
32094;SDS011;18608;53.688;10.748;2022-08-20T07:29:57;31.47;;;18.33;;
32094;SDS011;18608;53.688;10.748;2022-08-20T07:32:42;30.70;;;16.90;;
32094;SDS011;18608;53.688;10.748;2022-08-20T07:35:11;32.80;;;17.03;;
32094;SDS011;18608;53.688;10.748;2022-08-20T07:37:39;28.80;;;16.10;;
32094;SDS011;18608;53.688;10.748;2022-08-20T07:40:07;21.73;;;12.73;;
32094;SDS011;18608;53.688;10.748;2022-08-20T07:42:35;17.00;;;10.50;;
32094;SDS011;18608;53.688;10.748;2022-08-20T07:45:04;17.13;;;10.43;;
32094;SDS011;18608;53.688;10.748;2022-08-20T07:47:35;19.10;;;11.27;;
32094;SDS011;18608;53.688;10.748;2022-08-20T07:50:01;14.10;;;9.50;;
32094;SDS011;18608;53.688;10.748;2022-08-20T07:52:28;12.30;;;9.53;;
32094;SDS011;18608;53.688;10.748;2022-08-20T07:54:54;9.00;;;7.47;;
32094;SDS011;18608;53.688;10.748;2022-08-20T07:57:19;9.63;;;8.07;;
32094;SDS011;18608;53.688;10.748;2022-08-20T07:59:45;13.13;;;7.43;;
32094;SDS011;18608;53.688;10.748;2022-08-20T08:02:11;10.87;;;7.40;;
32094;SDS011;18608;53.688;10.748;2022-08-20T08:04:37;13.37;;;8.87;;
32094;SDS011;18608;53.688;10.748;2022-08-20T08:07:03;11.57;;;8.10;;
32094;SDS011;18608;53.688;10.748;2022-08-20T08:09:30;11.60;;;8.57;;
32094;SDS011;18608;53.688;10.748;2022-08-20T08:11:58;10.40;;;8.23;;
32094;SDS011;18608;53.688;10.748;2022-08-20T08:14:27;14.83;;;10.00;;
32094;SDS011;18608;53.688;10.748;2022-08-20T08:16:58;15.17;;;10.53;;
32094;SDS011;18608;53.688;10.748;2022-08-20T08:19:27;18.80;;;9.50;;
32094;SDS011;18608;53.688;10.748;2022-08-20T08:21:58;15.30;;;11.10;;
32094;SDS011;18608;53.688;10.748;2022-08-20T08:24:24;11.80;;;10.07;;
32094;SDS011;18608;53.688;10.748;2022-08-20T08:26:50;12.37;;;9.67;;
32094;SDS011;18608;53.688;10.748;2022-08-20T08:29:17;12.50;;;10.23;;
32094;SDS011;18608;53.688;10.748;2022-08-20T08:31:42;11.53;;;9.67;;
32094;SDS011;18608;53.688;10.748;2022-08-20T08:34:08;10.80;;;8.50;;
32094;SDS011;18608;53.688;10.748;2022-08-20T08:36:35;13.73;;;9.50;;
32094;SDS011;18608;53.688;10.748;2022-08-20T08:39:03;14.53;;;10.53;;
32094;SDS011;18608;53.688;10.748;2022-08-20T08:41:36;14.93;;;8.80;;
32094;SDS011;18608;53.688;10.748;2022-08-20T08:44:13;9.73;;;8.37;;
32094;SDS011;18608;53.688;10.748;2022-08-20T08:46:47;10.03;;;8.37;;
32094;SDS011;18608;53.688;10.748;2022-08-20T08:49:21;8.50;;;7.70;;
32094;SDS011;18608;53.688;10.748;2022-08-20T08:51:52;11.67;;;8.93;;
32094;SDS011;18608;53.688;10.748;2022-08-20T08:54:24;7.90;;;7.10;;
32094;SDS011;18608;53.688;10.748;2022-08-20T08:56:53;8.97;;;8.07;;
32094;SDS011;18608;53.688;10.748;2022-08-20T08:59:20;8.37;;;6.60;;
32094;SDS011;18608;53.688;10.748;2022-08-20T09:01:49;9.90;;;7.10;;
32094;SDS011;18608;53.688;10.748;2022-08-20T09:04:18;7.80;;;6.37;;
32094;SDS011;18608;53.688;10.748;2022-08-20T09:06:46;7.80;;;7.20;;
32094;SDS011;18608;53.688;10.748;2022-08-20T09:09:16;6.83;;;6.33;;
32094;SDS011;18608;53.688;10.748;2022-08-20T09:11:46;7.03;;;6.37;;
32094;SDS011;18608;53.688;10.748;2022-08-20T09:14:17;7.20;;;6.40;;
32094;SDS011;18608;53.688;10.748;2022-08-20T09:16:43;9.60;;;6.77;;
32094;SDS011;18608;53.688;10.748;2022-08-20T09:19:09;6.70;;;6.10;;
32094;SDS011;18608;53.688;10.748;2022-08-20T09:21:35;6.60;;;6.10;;
32094;SDS011;18608;53.688;10.748;2022-08-20T09:24:01;8.10;;;6.20;;
32094;SDS011;18608;53.688;10.748;2022-08-20T09:26:27;9.53;;;5.27;;
32094;SDS011;18608;53.688;10.748;2022-08-20T09:28:53;8.03;;;5.77;;
32094;SDS011;18608;53.688;10.748;2022-08-20T09:31:19;6.67;;;6.07;;
32094;SDS011;18608;53.688;10.748;2022-08-20T09:33:45;6.80;;;5.90;;
32094;SDS011;18608;53.688;10.748;2022-08-20T09:36:11;6.37;;;5.17;;
32094;SDS011;18608;53.688;10.748;2022-08-20T09:38:37;11.60;;;5.37;;
32094;SDS011;18608;53.688;10.748;2022-08-20T09:41:03;7.17;;;6.47;;
32094;SDS011;18608;53.688;10.748;2022-08-20T09:43:29;7.80;;;7.10;;
32094;SDS011;18608;53.688;10.748;2022-08-20T09:45:55;6.03;;;5.50;;
32094;SDS011;18608;53.688;10.748;2022-08-20T09:48:21;8.60;;;5.40;;
32094;SDS011;18608;53.688;10.748;2022-08-20T09:50:47;6.83;;;6.13;;
32094;SDS011;18608;53.688;10.748;2022-08-20T09:53:13;4.60;;;3.90;;
32094;SDS011;18608;53.688;10.748;2022-08-20T09:55:40;6.13;;;4.87;;
32094;SDS011;18608;53.688;10.748;2022-08-20T09:58:15;4.67;;;4.30;;
32094;SDS011;18608;53.688;10.748;2022-08-20T10:01:12;5.10;;;4.10;;
32094;SDS011;18608;53.688;10.748;2022-08-20T10:03:41;3.77;;;3.47;;
32094;SDS011;18608;53.688;10.748;2022-08-20T10:06:07;3.87;;;3.57;;
32094;SDS011;18608;53.688;10.748;2022-08-20T10:08:35;8.67;;;3.50;;
32094;SDS011;18608;53.688;10.748;2022-08-20T10:11:01;6.30;;;3.63;;
32094;SDS011;18608;53.688;10.748;2022-08-20T10:13:27;3.90;;;3.60;;
32094;SDS011;18608;53.688;10.748;2022-08-20T10:15:53;3.47;;;3.17;;
32094;SDS011;18608;53.688;10.748;2022-08-20T10:18:18;4.03;;;3.33;;
32094;SDS011;18608;53.688;10.748;2022-08-20T10:20:44;2.97;;;2.87;;
32094;SDS011;18608;53.688;10.748;2022-08-20T10:23:10;3.90;;;3.60;;
32094;SDS011;18608;53.688;10.748;2022-08-20T10:25:36;4.53;;;3.53;;
32094;SDS011;18608;53.688;10.748;2022-08-20T10:28:02;5.90;;;3.63;;
32094;SDS011;18608;53.688;10.748;2022-08-20T10:30:28;6.93;;;3.60;;
32094;SDS011;18608;53.688;10.748;2022-08-20T10:32:54;6.30;;;2.90;;
32094;SDS011;18608;53.688;10.748;2022-08-20T10:35:20;2.60;;;2.40;;
32094;SDS011;18608;53.688;10.748;2022-08-20T10:37:46;4.93;;;3.40;;
32094;SDS011;18608;53.688;10.748;2022-08-20T10:40:12;3.87;;;2.93;;
32094;SDS011;18608;53.688;10.748;2022-08-20T10:42:42;7.90;;;3.47;;
32094;SDS011;18608;53.688;10.748;2022-08-20T10:45:11;7.70;;;3.70;;
32094;SDS011;18608;53.688;10.748;2022-08-20T10:47:38;3.90;;;3.57;;
32094;SDS011;18608;53.688;10.748;2022-08-20T10:50:06;7.20;;;4.00;;
32094;SDS011;18608;53.688;10.748;2022-08-20T10:52:33;4.60;;;3.47;;
32094;SDS011;18608;53.688;10.748;2022-08-20T10:54:59;3.60;;;3.40;;
32094;SDS011;18608;53.688;10.748;2022-08-20T10:57:26;4.00;;;3.70;;
32094;SDS011;18608;53.688;10.748;2022-08-20T10:59:53;3.80;;;3.60;;
32094;SDS011;18608;53.688;10.748;2022-08-20T11:02:20;3.97;;;3.57;;
32094;SDS011;18608;53.688;10.748;2022-08-20T11:04:46;7.23;;;2.73;;
32094;SDS011;18608;53.688;10.748;2022-08-20T11:07:17;3.80;;;3.10;;
32094;SDS011;18608;53.688;10.748;2022-08-20T11:09:54;2.70;;;2.50;;
32094;SDS011;18608;53.688;10.748;2022-08-20T11:12:21;4.10;;;3.40;;
32094;SDS011;18608;53.688;10.748;2022-08-20T11:14:48;7.53;;;2.67;;
32094;SDS011;18608;53.688;10.748;2022-08-20T11:17:21;3.10;;;2.57;;
32094;SDS011;18608;53.688;10.748;2022-08-20T11:19:48;5.70;;;2.30;;
32094;SDS011;18608;53.688;10.748;2022-08-20T11:22:15;5.80;;;2.10;;
32094;SDS011;18608;53.688;10.748;2022-08-20T11:24:41;3.73;;;2.30;;
32094;SDS011;18608;53.688;10.748;2022-08-20T11:27:07;13.20;;;2.30;;
32094;SDS011;18608;53.688;10.748;2022-08-20T11:29:33;4.63;;;2.20;;
32094;SDS011;18608;53.688;10.748;2022-08-20T11:32:00;6.20;;;3.20;;
32094;SDS011;18608;53.688;10.748;2022-08-20T11:34:26;5.00;;;2.63;;
32094;SDS011;18608;53.688;10.748;2022-08-20T11:36:52;4.47;;;2.40;;
32094;SDS011;18608;53.688;10.748;2022-08-20T11:39:18;4.47;;;2.03;;
32094;SDS011;18608;53.688;10.748;2022-08-20T11:41:44;3.73;;;2.17;;
32094;SDS011;18608;53.688;10.748;2022-08-20T11:44:10;2.50;;;1.57;;
32094;SDS011;18608;53.688;10.748;2022-08-20T11:46:36;3.33;;;1.83;;
32094;SDS011;18608;53.688;10.748;2022-08-20T11:49:02;4.93;;;1.60;;
32094;SDS011;18608;53.688;10.748;2022-08-20T11:51:28;4.07;;;1.87;;
32094;SDS011;18608;53.688;10.748;2022-08-20T11:53:54;3.73;;;2.10;;
32094;SDS011;18608;53.688;10.748;2022-08-20T11:56:19;3.10;;;2.00;;
32094;SDS011;18608;53.688;10.748;2022-08-20T11:58:45;8.13;;;2.20;;
32094;SDS011;18608;53.688;10.748;2022-08-20T12:01:11;2.50;;;1.90;;
32094;SDS011;18608;53.688;10.748;2022-08-20T12:03:38;4.77;;;1.90;;
32094;SDS011;18608;53.688;10.748;2022-08-20T12:06:03;9.00;;;2.30;;
32094;SDS011;18608;53.688;10.748;2022-08-20T12:08:30;6.17;;;2.80;;
32094;SDS011;18608;53.688;10.748;2022-08-20T12:10:57;9.90;;;1.97;;
32094;SDS011;18608;53.688;10.748;2022-08-20T12:13:26;2.03;;;1.43;;
32094;SDS011;18608;53.688;10.748;2022-08-20T12:15:53;3.80;;;2.50;;
32094;SDS011;18608;53.688;10.748;2022-08-20T12:18:19;7.13;;;2.43;;
32094;SDS011;18608;53.688;10.748;2022-08-20T12:20:45;4.30;;;2.20;;
32094;SDS011;18608;53.688;10.748;2022-08-20T12:23:10;9.13;;;2.80;;
32094;SDS011;18608;53.688;10.748;2022-08-20T12:25:36;3.97;;;1.87;;
32094;SDS011;18608;53.688;10.748;2022-08-20T12:28:02;6.93;;;2.30;;
32094;SDS011;18608;53.688;10.748;2022-08-20T12:30:29;4.73;;;1.83;;
32094;SDS011;18608;53.688;10.748;2022-08-20T12:32:55;3.57;;;1.97;;
32094;SDS011;18608;53.688;10.748;2022-08-20T12:35:21;3.30;;;1.90;;
32094;SDS011;18608;53.688;10.748;2022-08-20T12:37:47;2.50;;;2.30;;
32094;SDS011;18608;53.688;10.748;2022-08-20T12:40:15;7.40;;;2.60;;
32094;SDS011;18608;53.688;10.748;2022-08-20T12:42:46;5.27;;;1.60;;
32094;SDS011;18608;53.688;10.748;2022-08-20T12:45:12;2.73;;;1.60;;
32094;SDS011;18608;53.688;10.748;2022-08-20T12:47:40;6.50;;;2.67;;
32094;SDS011;18608;53.688;10.748;2022-08-20T12:50:10;9.40;;;3.40;;
32094;SDS011;18608;53.688;10.748;2022-08-20T12:52:40;5.23;;;2.37;;
32094;SDS011;18608;53.688;10.748;2022-08-20T12:55:06;9.23;;;2.63;;
32094;SDS011;18608;53.688;10.748;2022-08-20T12:57:38;4.43;;;2.13;;
32094;SDS011;18608;53.688;10.748;2022-08-20T13:00:09;5.37;;;2.00;;
32094;SDS011;18608;53.688;10.748;2022-08-20T13:02:37;4.20;;;1.97;;
32094;SDS011;18608;53.688;10.748;2022-08-20T13:05:05;9.13;;;2.10;;
32094;SDS011;18608;53.688;10.748;2022-08-20T13:07:34;1.67;;;1.37;;
32094;SDS011;18608;53.688;10.748;2022-08-20T13:10:01;4.17;;;1.93;;
32094;SDS011;18608;53.688;10.748;2022-08-20T13:12:28;5.30;;;3.47;;
32094;SDS011;18608;53.688;10.748;2022-08-20T13:14:53;6.13;;;1.40;;
32094;SDS011;18608;53.688;10.748;2022-08-20T13:17:19;4.67;;;1.60;;
32094;SDS011;18608;53.688;10.748;2022-08-20T13:19:45;3.97;;;2.17;;
32094;SDS011;18608;53.688;10.748;2022-08-20T13:22:11;4.87;;;1.67;;
32094;SDS011;18608;53.688;10.748;2022-08-20T13:24:37;13.90;;;1.70;;
32094;SDS011;18608;53.688;10.748;2022-08-20T13:27:10;5.40;;;1.33;;
32094;SDS011;18608;53.688;10.748;2022-08-20T13:29:47;5.60;;;2.50;;
32094;SDS011;18608;53.688;10.748;2022-08-20T13:32:15;3.97;;;1.57;;
32094;SDS011;18608;53.688;10.748;2022-08-20T13:34:41;4.43;;;1.40;;
32094;SDS011;18608;53.688;10.748;2022-08-20T13:37:25;1.20;;;1.10;;
32094;SDS011;18608;53.688;10.748;2022-08-20T13:39:53;4.30;;;1.60;;
32094;SDS011;18608;53.688;10.748;2022-08-20T13:42:19;6.93;;;1.53;;
32094;SDS011;18608;53.688;10.748;2022-08-20T13:44:45;10.73;;;1.70;;
32094;SDS011;18608;53.688;10.748;2022-08-20T13:49:44;4.90;;;1.90;;
32094;SDS011;18608;53.688;10.748;2022-08-20T13:52:10;4.90;;;1.73;;
32094;SDS011;18608;53.688;10.748;2022-08-20T13:54:36;5.53;;;1.70;;
32094;SDS011;18608;53.688;10.748;2022-08-20T13:57:09;5.13;;;1.47;;
32094;SDS011;18608;53.688;10.748;2022-08-20T13:59:38;4.43;;;1.20;;
32094;SDS011;18608;53.688;10.748;2022-08-20T14:02:06;35.43;;;2.10;;
32094;SDS011;18608;53.688;10.748;2022-08-20T14:04:34;3.47;;;1.47;;
32094;SDS011;18608;53.688;10.748;2022-08-20T14:07:12;4.10;;;1.43;;
32094;SDS011;18608;53.688;10.748;2022-08-20T14:09:39;7.57;;;1.40;;
32094;SDS011;18608;53.688;10.748;2022-08-20T14:12:07;7.47;;;2.10;;
32094;SDS011;18608;53.688;10.748;2022-08-20T14:14:33;3.03;;;1.23;;
32094;SDS011;18608;53.688;10.748;2022-08-20T14:16:59;4.57;;;1.40;;
32094;SDS011;18608;53.688;10.748;2022-08-20T14:19:48;14.07;;;1.70;;
32094;SDS011;18608;53.688;10.748;2022-08-20T14:22:15;9.87;;;1.57;;
32094;SDS011;18608;53.688;10.748;2022-08-20T14:24:42;3.50;;;1.13;;
32094;SDS011;18608;53.688;10.748;2022-08-20T14:27:08;7.63;;;1.07;;
32094;SDS011;18608;53.688;10.748;2022-08-20T14:29:35;3.90;;;1.50;;
32094;SDS011;18608;53.688;10.748;2022-08-20T14:32:02;3.60;;;1.00;;